createdAt,value
2023-09-14T00:01:44.956Z,11.07
2023-09-14T00:05:27.476Z,8.90
2023-09-14T00:09:10.614Z,10.50
2023-09-14T00:12:54.054Z,7.82
2023-09-14T00:16:36.251Z,8.03
2023-09-14T00:20:27.347Z,9.60
2023-09-14T00:24:09.321Z,9.02
2023-09-14T00:27:55.026Z,8.63
2023-09-14T00:31:39.952Z,8.32
2023-09-14T00:35:22.576Z,8.60
2023-09-14T00:39:04.782Z,9.18
2023-09-14T00:42:52.478Z,10.90
2023-09-14T00:46:34.703Z,10.00
2023-09-14T00:50:18.884Z,9.40
2023-09-14T00:54:01.189Z,9.37
2023-09-14T00:57:43.264Z,10.27
2023-09-14T01:01:25.356Z,8.88
2023-09-14T01:05:08.418Z,10.10
2023-09-14T01:08:50.742Z,11.35
2023-09-14T01:12:33.810Z,12.20
2023-09-14T01:16:40.205Z,11.98
2023-09-14T01:21:00.166Z,10.10
2023-09-14T01:24:53.553Z,9.48
2023-09-14T01:28:35.493Z,10.75
2023-09-14T01:32:18.011Z,10.10
2023-09-14T01:36:22.166Z,12.93
2023-09-14T01:40:10.415Z,10.70
2023-09-14T01:43:55.600Z,9.68
2023-09-14T01:47:37.602Z,11.48
2023-09-14T01:51:20.007Z,13.75
2023-09-14T01:55:01.994Z,11.63
2023-09-14T01:58:44.400Z,9.70
2023-09-14T02:02:27.805Z,10.35
2023-09-14T02:06:09.884Z,10.55
2023-09-14T02:09:52.868Z,11.67
2023-09-14T02:13:36.108Z,14.50
2023-09-14T02:17:18.323Z,15.90
2023-09-14T02:21:00.312Z,15.60
2023-09-14T02:24:42.301Z,17.25
2023-09-14T02:28:24.335Z,16.60
2023-09-14T02:32:08.415Z,19.13
2023-09-14T02:35:52.589Z,19.90
2023-09-14T02:39:34.728Z,22.52
2023-09-14T02:43:16.785Z,18.15
2023-09-14T02:46:58.760Z,22.97
2023-09-14T02:50:40.883Z,17.45
2023-09-14T02:54:22.817Z,15.15
2023-09-14T02:58:11.889Z,17.67
2023-09-14T03:01:54.030Z,19.52
2023-09-14T03:05:36.271Z,18.55
2023-09-14T03:09:18.283Z,18.23
2023-09-14T03:13:00.415Z,14.60
2023-09-14T03:16:42.617Z,15.73
2023-09-14T03:20:24.784Z,18.95
2023-09-14T03:24:07.143Z,20.30
2023-09-14T03:27:49.855Z,19.95
2023-09-14T03:31:32.039Z,21.83
2023-09-14T03:35:14.199Z,20.88
2023-09-14T03:38:56.228Z,22.85
2023-09-14T03:42:38.303Z,21.73
2023-09-14T03:46:20.462Z,21.33
2023-09-14T03:50:02.631Z,19.03
2023-09-14T03:53:44.600Z,17.05
2023-09-14T03:57:26.626Z,15.55
2023-09-14T04:01:08.725Z,16.30
2023-09-14T04:04:51.442Z,15.85
2023-09-14T04:08:33.548Z,13.48
2023-09-14T04:12:15.558Z,14.32
2023-09-14T04:15:58.234Z,11.35
2023-09-14T04:19:43.241Z,16.35
2023-09-14T04:23:25.157Z,12.13
2023-09-14T04:27:07.926Z,12.93
2023-09-14T04:30:53.514Z,19.73
2023-09-14T04:34:35.800Z,14.70
2023-09-14T04:38:17.806Z,15.23
2023-09-14T04:41:59.788Z,17.38
2023-09-14T04:45:42.482Z,14.48
2023-09-14T04:49:24.577Z,14.98
2023-09-14T04:53:06.531Z,14.57
2023-09-14T04:56:48.485Z,11.73
2023-09-14T05:00:30.427Z,11.13
2023-09-14T05:04:12.518Z,16.40
2023-09-14T05:07:54.477Z,13.32
2023-09-14T05:11:36.783Z,18.80
2023-09-14T05:15:19.109Z,17.43
2023-09-14T05:19:01.237Z,14.00
2023-09-14T05:22:43.680Z,20.27
2023-09-14T05:26:25.680Z,17.02
2023-09-14T05:30:10.264Z,13.10
2023-09-14T05:33:52.336Z,16.13
2023-09-14T05:37:35.070Z,12.43
2023-09-14T05:41:17.043Z,13.30
2023-09-14T05:44:59.043Z,11.18
2023-09-14T05:48:41.010Z,11.80
2023-09-14T05:52:22.964Z,12.83
2023-09-14T05:56:05.107Z,11.55
2023-09-14T05:59:47.506Z,14.68
2023-09-14T06:03:29.674Z,10.73
2023-09-14T06:07:11.788Z,11.40
2023-09-14T06:10:53.774Z,12.70
2023-09-14T06:14:35.742Z,14.80
2023-09-14T06:18:18.700Z,15.87
2023-09-14T06:22:00.749Z,16.98
2023-09-14T06:25:43.890Z,11.88
2023-09-14T06:29:25.828Z,14.93
2023-09-14T06:33:07.860Z,13.93
2023-09-14T06:36:50.210Z,13.15
2023-09-14T06:40:32.397Z,11.75
2023-09-14T06:44:14.614Z,11.93
2023-09-14T06:47:56.622Z,13.35
2023-09-14T06:51:38.607Z,9.98
2023-09-14T06:55:21.463Z,11.00
2023-09-14T06:59:03.786Z,12.45
2023-09-14T07:02:46.322Z,10.18
2023-09-14T07:06:50.567Z,8.90
2023-09-14T07:10:34.603Z,8.30
2023-09-14T07:14:16.845Z,8.73
2023-09-14T07:18:06.148Z,21.10
2023-09-14T07:21:48.576Z,7.38
2023-09-14T07:25:32.255Z,6.90
2023-09-14T07:29:21.969Z,6.68
2023-09-14T07:33:04.284Z,7.03
2023-09-14T07:36:46.552Z,7.05
2023-09-14T07:40:35.516Z,6.10
2023-09-14T07:44:17.565Z,6.10
2023-09-14T07:47:59.751Z,7.22
2023-09-14T07:51:52.561Z,6.22
2023-09-14T07:55:35.197Z,4.75
2023-09-14T07:59:17.534Z,4.50
2023-09-14T08:03:07.843Z,5.80
2023-09-14T08:06:49.910Z,5.18
2023-09-14T08:10:32.431Z,4.73
2023-09-14T08:14:22.911Z,5.15
2023-09-14T08:18:05.430Z,5.35
2023-09-14T08:21:47.707Z,6.60
2023-09-14T08:25:41.498Z,5.47
2023-09-14T08:29:23.801Z,6.00
2023-09-14T08:33:06.425Z,4.97
2023-09-14T08:36:55.271Z,4.70
2023-09-14T08:40:39.657Z,4.85
2023-09-14T08:45:08.905Z,5.10
2023-09-14T08:49:20.403Z,4.63
2023-09-14T08:53:02.877Z,5.25
2023-09-14T08:57:14.598Z,4.28
2023-09-14T09:00:58.127Z,4.10
2023-09-14T09:05:05.144Z,4.30
2023-09-14T09:08:47.818Z,4.28
2023-09-14T09:13:18.263Z,4.63
2023-09-14T09:17:28.360Z,3.83
2023-09-14T09:21:12.800Z,5.05
2023-09-14T09:25:42.142Z,4.65
2023-09-14T09:30:12.432Z,5.40
2023-09-14T09:34:42.128Z,3.78
2023-09-14T09:38:54.127Z,5.88
2023-09-14T09:42:37.928Z,4.60
2023-09-14T09:47:06.684Z,7.43
2023-09-14T09:51:36.656Z,5.95
2023-09-14T09:56:07.423Z,4.20
2023-09-14T10:00:16.271Z,5.23
2023-09-14T10:04:00.588Z,5.05
2023-09-14T10:08:30.004Z,4.93
2023-09-14T10:13:01.188Z,4.53
2023-09-14T10:17:12.276Z,3.90
2023-09-14T10:20:56.886Z,5.07
2023-09-14T10:25:06.017Z,6.90
2023-09-14T10:28:48.832Z,4.47
2023-09-14T10:32:57.495Z,3.58
2023-09-14T10:36:42.717Z,4.07
2023-09-14T10:41:13.022Z,3.97
2023-09-14T10:45:20.660Z,4.68
2023-09-14T10:49:03.150Z,4.83
2023-09-14T10:53:16.003Z,4.65
2023-09-14T11:11:15.704Z,11.80
2023-09-14T11:29:19.285Z,4.20
2023-09-14T11:37:20.162Z,3.38
2023-09-14T12:06:30.730Z,5.38
2023-09-14T12:18:52.121Z,4.10
2023-09-14T12:22:45.371Z,3.88
2023-09-14T12:26:42.763Z,4.70
2023-09-14T12:30:35.819Z,5.68
2023-09-14T12:34:35.793Z,3.92
2023-09-14T12:42:36.260Z,5.40
2023-09-14T12:55:25.010Z,5.53
2023-09-14T12:59:28.515Z,4.88
2023-09-14T13:07:20.777Z,5.63
2023-09-14T13:11:48.536Z,5.25
2023-09-14T13:24:10.717Z,4.85
2023-09-14T13:28:05.868Z,3.85
2023-09-14T13:32:02.772Z,4.17
2023-09-14T13:35:58.581Z,5.47
2023-09-14T13:39:58.912Z,5.05
2023-09-14T13:43:49.620Z,4.32
2023-09-14T13:52:20.873Z,6.45
2023-09-14T14:02:29.613Z,4.53
2023-09-14T14:06:24.378Z,4.05
2023-09-14T14:14:50.850Z,3.83
2023-09-14T14:18:44.684Z,4.78
2023-09-14T14:22:47.946Z,5.22
2023-09-14T14:26:37.006Z,4.78
2023-09-14T14:30:40.173Z,4.47
2023-09-14T14:34:30.738Z,3.95
2023-09-14T14:38:36.831Z,4.07
2023-09-14T14:46:30.592Z,6.10
2023-09-14T14:50:19.801Z,6.05
2023-09-14T14:54:17.421Z,8.18
2023-09-14T14:58:11.658Z,4.57
2023-09-14T15:02:11.646Z,5.72
2023-09-14T15:11:14.523Z,4.73
2023-09-14T15:15:03.965Z,4.45
2023-09-14T15:19:04.336Z,4.38
2023-09-14T15:22:57.572Z,5.73
2023-09-14T15:26:57.426Z,4.05
2023-09-14T15:30:51.061Z,5.85
2023-09-14T15:34:51.468Z,4.65
2023-09-14T15:42:47.889Z,3.67
2023-09-14T15:46:37.608Z,4.25
2023-09-14T15:50:37.511Z,5.20
2023-09-14T15:58:33.809Z,5.15
2023-09-14T16:02:22.722Z,5.13
2023-09-14T16:06:23.426Z,5.00
2023-09-14T16:10:17.963Z,4.28
2023-09-14T16:14:16.033Z,5.07
2023-09-14T16:18:08.891Z,4.90
2023-09-14T16:22:08.525Z,5.07
2023-09-14T16:26:02.539Z,5.65
2023-09-14T16:30:07.053Z,4.97
2023-09-14T16:33:56.386Z,4.90
2023-09-14T16:37:59.645Z,7.45
2023-09-14T16:41:49.220Z,6.10
2023-09-14T16:45:48.398Z,5.63
2023-09-14T16:49:43.334Z,4.60
2023-09-14T16:53:41.266Z,4.57
2023-09-14T16:57:34.585Z,5.25
2023-09-14T17:01:34.664Z,7.55
2023-09-14T17:05:27.966Z,4.55
2023-09-14T17:09:27.846Z,3.80
2023-09-14T17:13:20.611Z,10.05
2023-09-14T17:17:21.237Z,5.78
2023-09-14T17:25:14.082Z,5.28
2023-09-14T17:29:43.265Z,5.38
2023-09-14T17:33:36.706Z,4.17
2023-09-14T17:37:36.918Z,5.28
2023-09-14T17:41:31.367Z,4.13
2023-09-14T17:50:00.193Z,4.45
2023-09-14T17:54:35.327Z,5.18
2023-09-14T17:58:24.355Z,4.03
2023-09-14T18:02:26.689Z,4.60
2023-09-14T18:06:19.908Z,4.97
2023-09-14T18:14:47.290Z,5.30
2023-09-14T18:18:40.591Z,4.93
2023-09-14T18:22:42.691Z,4.00
2023-09-14T18:26:33.428Z,4.72
2023-09-14T18:30:16.640Z,5.70
2023-09-14T18:34:01.691Z,8.70
2023-09-14T18:37:44.309Z,6.20
2023-09-14T18:41:26.245Z,6.33
2023-09-14T18:45:12.081Z,7.90
2023-09-14T18:48:54.018Z,6.70
2023-09-14T18:52:36.031Z,6.57
2023-09-14T18:56:18.044Z,4.45
2023-09-14T19:00:00.364Z,6.47
2023-09-14T19:03:42.885Z,9.65
2023-09-14T19:07:25.051Z,8.05
2023-09-14T19:11:07.818Z,5.90
2023-09-14T19:14:50.100Z,7.80
2023-09-14T19:18:32.149Z,7.10
2023-09-14T19:22:14.211Z,6.68
2023-09-14T19:25:56.397Z,6.78
2023-09-14T19:29:38.345Z,6.70
2023-09-14T19:33:20.944Z,8.98
2023-09-14T19:37:04.788Z,8.38
2023-09-14T19:40:47.512Z,8.80
2023-09-14T19:44:29.537Z,8.65
2023-09-14T19:48:11.544Z,7.90
2023-09-14T19:51:53.663Z,6.63
2023-09-14T19:55:35.651Z,7.00
2023-09-14T19:59:17.633Z,7.65
2023-09-14T20:02:59.726Z,8.05
2023-09-14T20:06:42.499Z,7.83
2023-09-14T20:10:25.714Z,8.40
2023-09-14T20:14:07.807Z,6.60
2023-09-14T20:17:49.825Z,10.45
2023-09-14T20:21:31.948Z,18.40
2023-09-14T20:25:14.142Z,12.88
2023-09-14T20:28:56.376Z,10.45
2023-09-14T20:32:43.476Z,9.73
2023-09-14T20:36:31.480Z,10.50
2023-09-14T20:40:18.389Z,9.45
2023-09-14T20:44:01.503Z,9.00
2023-09-14T20:47:44.238Z,9.10
2023-09-14T20:51:26.308Z,10.85
2023-09-14T20:55:13.708Z,12.93
2023-09-14T20:58:55.854Z,9.63
2023-09-14T21:02:38.647Z,8.50
2023-09-14T21:06:20.695Z,11.82
2023-09-14T21:10:03.125Z,11.57
2023-09-14T21:13:45.403Z,8.85
2023-09-14T21:17:27.465Z,11.30
2023-09-14T21:21:10.678Z,12.20
2023-09-14T21:24:53.998Z,14.13
2023-09-14T21:28:35.998Z,14.02
2023-09-14T21:32:17.998Z,13.40
2023-09-14T21:35:59.979Z,11.55
2023-09-14T21:39:42.021Z,10.80
2023-09-14T21:43:24.078Z,12.70
2023-09-14T21:47:06.202Z,10.17
2023-09-14T21:50:48.397Z,13.25
2023-09-14T21:54:30.633Z,11.27
2023-09-14T21:58:12.973Z,12.77
2023-09-14T22:01:56.824Z,15.05
2023-09-14T22:05:38.996Z,14.75
2023-09-14T22:09:20.949Z,13.80
2023-09-14T22:13:03.313Z,13.63
2023-09-14T22:16:45.622Z,12.68
2023-09-14T22:20:28.195Z,12.40
2023-09-14T22:24:10.857Z,14.07
2023-09-14T22:27:52.929Z,15.02
2023-09-14T22:31:35.023Z,14.88
2023-09-14T22:35:17.919Z,15.03
2023-09-14T22:38:59.946Z,13.40
2023-09-14T22:42:42.102Z,15.63
2023-09-14T22:46:25.272Z,14.77
2023-09-14T22:50:11.413Z,18.15
2023-09-14T22:53:54.266Z,15.27
2023-09-14T22:57:36.267Z,14.88
2023-09-14T23:01:20.398Z,14.03
2023-09-14T23:05:02.689Z,14.40
2023-09-14T23:08:48.319Z,15.30
2023-09-14T23:12:30.446Z,18.37
2023-09-14T23:16:15.503Z,14.90
2023-09-14T23:19:58.477Z,15.93
2023-09-14T23:23:40.646Z,16.85
2023-09-14T23:27:26.785Z,20.27
2023-09-14T23:31:08.785Z,19.67
2023-09-14T23:34:51.205Z,17.75
2023-09-14T23:38:33.223Z,16.47
2023-09-14T23:42:15.246Z,21.55
2023-09-14T23:45:57.390Z,20.42
2023-09-14T23:49:40.476Z,18.03
2023-09-14T23:53:22.673Z,19.75
2023-09-14T23:57:04.773Z,19.10
